Time;durP1;ratioP1;P1;durP2;ratioP2;P2;SDS_P1;SDS_P2;PMS_P1;PMS_P2;Temp;Humidity;BMP_temperature;BMP_pressure;BME280_temperature;BME280_humidity;BME280_pressure;Samples;Min_cycle;Max_cycle;Signal;HPM_P1;HPM_P2
2023/10/23 00:02:21;;;;;;;2.90;1.20;;;;;;;;;;5067744;28;20078;-83
2023/10/23 00:04:46;;;;;;;8.50;2.08;;;;;;;;;;5072603;28;20024;-83
2023/10/23 00:07:12;;;;;;;4.18;1.10;;;;;;;;;;5064326;28;20020;-82
2023/10/23 00:09:37;;;;;;;6.55;1.60;;;;;;;;;;5048054;28;20040;-83
2023/10/23 00:12:02;;;;;;;6.30;1.35;;;;;;;;;;5063679;28;20032;-83
2023/10/23 00:14:27;;;;;;;4.47;1.30;;;;;;;;;;5067179;28;20035;-82
2023/10/23 00:16:53;;;;;;;5.45;1.58;;;;;;;;;;5066758;28;20032;-83
2023/10/23 00:19:18;;;;;;;3.35;1.38;;;;;;;;;;5070562;28;20033;-83
2023/10/23 00:21:44;;;;;;;3.33;1.20;;;;;;;;;;5065007;28;20119;-83
2023/10/23 00:24:09;;;;;;;3.88;1.40;;;;;;;;;;5066416;28;20110;-83
2023/10/23 00:26:35;;;;;;;3.60;1.30;;;;;;;;;;5068465;28;20032;-83
2023/10/23 00:29:01;;;;;;;6.85;1.50;;;;;;;;;;5073586;28;20027;-83
2023/10/23 00:31:27;;;;;;;5.13;1.50;;;;;;;;;;5073541;28;20039;-83
2023/10/23 00:33:52;;;;;;;4.55;1.17;;;;;;;;;;5069572;28;20025;-83
2023/10/23 00:36:17;;;;;;;4.00;1.73;;;;;;;;;;5065925;28;20124;-83
2023/10/23 00:38:43;;;;;;;3.60;1.30;;;;;;;;;;5071374;28;20020;-83
2023/10/23 00:41:08;;;;;;;6.15;1.98;;;;;;;;;;5055739;28;20043;-83
2023/10/23 00:43:34;;;;;;;5.10;1.40;;;;;;;;;;5048781;28;20021;-83
2023/10/23 00:46:00;;;;;;;3.08;1.38;;;;;;;;;;5072856;28;20165;-83
2023/10/23 00:48:26;;;;;;;5.22;1.40;;;;;;;;;;5069592;28;20025;-83
2023/10/23 00:50:54;;;;;;;3.97;1.60;;;;;;;;;;5064804;28;20036;-83
2023/10/23 00:53:22;;;;;;;4.40;1.70;;;;;;;;;;5052513;28;20043;-83
2023/10/23 00:55:48;;;;;;;4.75;1.48;;;;;;;;;;5064958;28;20051;-83
2023/10/23 00:58:14;;;;;;;7.85;1.80;;;;;;;;;;5073220;28;20033;-83
2023/10/23 01:00:40;;;;;;;4.90;1.17;;;;;;;;;;5075653;28;20020;-83
2023/10/23 01:03:07;;;;;;;4.28;1.48;;;;;;;;;;5054775;28;20056;-83
2023/10/23 01:05:33;;;;;;;4.40;1.20;;;;;;;;;;5053441;28;20028;-83
2023/10/23 01:07:58;;;;;;;5.68;1.38;;;;;;;;;;5073036;28;20392;-83
2023/10/23 01:10:23;;;;;;;5.10;1.50;;;;;;;;;;5070904;28;20029;-83
2023/10/23 01:12:48;;;;;;;4.65;1.50;;;;;;;;;;5069911;28;20029;-83
2023/10/23 01:15:14;;;;;;;4.97;1.35;;;;;;;;;;5074747;28;20030;-83
2023/10/23 01:17:39;;;;;;;6.28;1.55;;;;;;;;;;5066986;28;20056;-83
2023/10/23 01:20:05;;;;;;;3.58;1.33;;;;;;;;;;5071036;28;20099;-83
2023/10/23 01:22:30;;;;;;;5.28;1.25;;;;;;;;;;5053198;28;20021;-82
2023/10/23 01:24:56;;;;;;;5.13;1.10;;;;;;;;;;5073810;28;20028;-83
2023/10/23 01:27:21;;;;;;;4.70;1.30;;;;;;;;;;5071380;28;20500;-83
2023/10/23 01:29:46;;;;;;;5.70;1.58;;;;;;;;;;5059356;28;20025;-83
2023/10/23 01:32:12;;;;;;;5.45;1.20;;;;;;;;;;5060648;28;20028;-83
2023/10/23 01:34:37;;;;;;;7.28;1.45;;;;;;;;;;5071504;28;20078;-83
2023/10/23 01:37:03;;;;;;;5.93;1.25;;;;;;;;;;5053571;28;20048;-83
2023/10/23 01:39:28;;;;;;;4.45;1.30;;;;;;;;;;5053403;28;20032;-83
2023/10/23 01:41:53;;;;;;;4.57;1.67;;;;;;;;;;5071931;28;20086;-83
2023/10/23 01:44:18;;;;;;;5.47;1.17;;;;;;;;;;5066135;28;20024;-83
2023/10/23 01:46:44;;;;;;;5.97;1.55;;;;;;;;;;5068944;28;20021;-83
2023/10/23 01:49:09;;;;;;;4.60;1.30;;;;;;;;;;5064218;28;20036;-84
2023/10/23 01:51:34;;;;;;;5.60;1.50;;;;;;;;;;5070109;28;20029;-83
2023/10/23 01:53:59;;;;;;;5.70;1.15;;;;;;;;;;5074714;28;20029;-83
2023/10/23 01:56:25;;;;;;;3.90;1.48;;;;;;;;;;5072339;28;20028;-83
2023/10/23 01:58:50;;;;;;;3.83;1.02;;;;;;;;;;5050468;28;20076;-82
2023/10/23 02:01:19;;;;;;;5.90;1.48;;;;;;;;;;5062783;28;20024;-82
2023/10/23 02:03:45;;;;;;;6.78;1.63;;;;;;;;;;5064138;28;20087;-83
2023/10/23 02:06:10;;;;;;;4.93;1.33;;;;;;;;;;5063101;28;20480;-83
2023/10/23 02:08:35;;;;;;;3.90;1.05;;;;;;;;;;5072498;28;20082;-82
2023/10/23 02:11:00;;;;;;;7.18;2.13;;;;;;;;;;5042760;28;20036;-82
2023/10/23 02:13:25;;;;;;;6.35;1.30;;;;;;;;;;5060537;28;20053;-82
2023/10/23 02:15:51;;;;;;;3.25;0.90;;;;;;;;;;5055660;28;20016;-83
2023/10/23 02:18:16;;;;;;;4.50;1.33;;;;;;;;;;5070931;28;20420;-83
2023/10/23 02:20:41;;;;;;;8.18;1.63;;;;;;;;;;5067924;28;20025;-81
2023/10/23 02:23:07;;;;;;;4.97;1.48;;;;;;;;;;5073984;28;20021;-81
2023/10/23 02:25:32;;;;;;;9.82;1.55;;;;;;;;;;5054887;28;20024;-82
2023/10/23 02:27:57;;;;;;;6.05;1.52;;;;;;;;;;5065382;28;20036;-82
2023/10/23 02:30:23;;;;;;;8.02;1.58;;;;;;;;;;5067046;28;20035;-82
2023/10/23 02:32:48;;;;;;;10.90;1.67;;;;;;;;;;5071193;28;20037;-82
2023/10/23 02:35:13;;;;;;;6.07;1.38;;;;;;;;;;5072986;28;20029;-82
2023/10/23 02:37:38;;;;;;;4.28;1.20;;;;;;;;;;5074186;28;20446;-83
2023/10/23 02:40:04;;;;;;;7.18;1.52;;;;;;;;;;5038664;28;20028;-83
2023/10/23 02:42:29;;;;;;;5.32;1.30;;;;;;;;;;5050888;28;20032;-83
2023/10/23 02:44:54;;;;;;;6.55;1.60;;;;;;;;;;5058709;28;20028;-83
2023/10/23 02:47:19;;;;;;;4.53;1.10;;;;;;;;;;5070773;28;20067;-84
2023/10/23 02:49:45;;;;;;;7.25;1.85;;;;;;;;;;5067703;28;20110;-84
2023/10/23 02:52:10;;;;;;;5.82;1.33;;;;;;;;;;5056138;28;20032;-83
2023/10/23 02:54:35;;;;;;;7.97;1.30;;;;;;;;;;5072496;28;20078;-83
2023/10/23 02:57:00;;;;;;;3.85;1.15;;;;;;;;;;5069414;28;20088;-83
2023/10/23 02:59:26;;;;;;;6.57;1.10;;;;;;;;;;5070583;28;20025;-83
2023/10/23 03:01:51;;;;;;;6.28;1.20;;;;;;;;;;5070558;28;20020;-84
2023/10/23 03:04:16;;;;;;;9.80;1.60;;;;;;;;;;5071461;28;20520;-82
2023/10/23 03:06:42;;;;;;;7.10;1.38;;;;;;;;;;5048730;28;20512;-83
2023/10/23 03:09:07;;;;;;;7.00;1.52;;;;;;;;;;5051909;28;20033;-83
2023/10/23 03:11:32;;;;;;;7.22;1.63;;;;;;;;;;5067723;28;20030;-83
2023/10/23 03:13:58;;;;;;;8.80;1.70;;;;;;;;;;5058857;28;20028;-83
2023/10/23 03:16:25;;;;;;;6.65;1.65;;;;;;;;;;5067836;28;20029;-83
2023/10/23 03:18:50;;;;;;;6.80;1.40;;;;;;;;;;5052868;28;20599;-83
2023/10/23 03:21:16;;;;;;;6.70;1.30;;;;;;;;;;5062994;28;20024;-83
2023/10/23 03:23:41;;;;;;;6.72;2.03;;;;;;;;;;5064767;28;20040;-83
2023/10/23 03:26:06;;;;;;;5.68;1.50;;;;;;;;;;5068489;28;20027;-84
2023/10/23 03:28:31;;;;;;;10.02;1.55;;;;;;;;;;5070004;28;20016;-84
2023/10/23 03:30:59;;;;;;;5.88;1.45;;;;;;;;;;5069847;28;20476;-84
2023/10/23 03:33:24;;;;;;;6.55;1.65;;;;;;;;;;5070475;28;20079;-84
2023/10/23 03:35:50;;;;;;;9.90;1.95;;;;;;;;;;5063347;28;20478;-84
2023/10/23 03:38:15;;;;;;;10.40;1.70;;;;;;;;;;5040245;28;20112;-84
2023/10/23 03:40:40;;;;;;;6.88;1.58;;;;;;;;;;5049160;28;20028;-84
2023/10/23 03:43:05;;;;;;;5.22;1.80;;;;;;;;;;5068994;28;20023;-84
2023/10/23 03:45:35;;;;;;;6.32;1.15;;;;;;;;;;5055455;28;20024;-84
2023/10/23 03:48:01;;;;;;;7.00;1.27;;;;;;;;;;5056860;28;20033;-83
2023/10/23 03:50:26;;;;;;;5.10;1.35;;;;;;;;;;5066733;28;20047;-84
2023/10/23 03:52:51;;;;;;;6.10;1.02;;;;;;;;;;5062854;28;20047;-85
2023/10/23 03:55:16;;;;;;;5.68;1.13;;;;;;;;;;5049932;28;20025;-85
2023/10/23 03:57:42;;;;;;;7.15;1.50;;;;;;;;;;5072198;28;20035;-85
2023/10/23 04:00:10;;;;;;;5.00;1.30;;;;;;;;;;5054675;28;20029;-85
2023/10/23 04:02:37;;;;;;;6.10;1.45;;;;;;;;;;5075361;28;20029;-85
2023/10/23 04:05:02;;;;;;;7.65;2.17;;;;;;;;;;5068339;28;20075;-85
2023/10/23 04:07:28;;;;;;;7.50;1.42;;;;;;;;;;5055605;28;20420;-85
2023/10/23 04:09:53;;;;;;;6.05;1.58;;;;;;;;;;5074117;28;20024;-85
2023/10/23 04:12:18;;;;;;;9.40;2.83;;;;;;;;;;5064249;28;20050;-85
2023/10/23 04:14:46;;;;;;;6.22;1.85;;;;;;;;;;5037538;28;20511;-86
2023/10/23 04:17:12;;;;;;;8.32;1.58;;;;;;;;;;5074931;28;20021;-84
2023/10/23 04:19:38;;;;;;;5.70;1.42;;;;;;;;;;5074774;28;20031;-85
2023/10/23 04:22:03;;;;;;;4.97;1.50;;;;;;;;;;5066696;28;20107;-85
2023/10/23 04:24:29;;;;;;;4.85;1.60;;;;;;;;;;5074400;28;20028;-85
2023/10/23 04:26:55;;;;;;;5.65;1.50;;;;;;;;;;5054564;28;20033;-83
2023/10/23 04:29:20;;;;;;;7.93;1.55;;;;;;;;;;5068766;28;20059;-85
2023/10/23 04:31:45;;;;;;;4.53;1.60;;;;;;;;;;5072218;28;20028;-85
2023/10/23 04:34:10;;;;;;;6.88;1.52;;;;;;;;;;5067082;28;20062;-85
2023/10/23 04:36:36;;;;;;;7.10;1.58;;;;;;;;;;5047125;28;20056;-85
2023/10/23 04:39:01;;;;;;;5.32;1.50;;;;;;;;;;5067061;28;20522;-85
2023/10/23 04:41:26;;;;;;;7.53;1.52;;;;;;;;;;5066815;28;20036;-84
2023/10/23 04:43:51;;;;;;;7.35;2.03;;;;;;;;;;5068007;28;20017;-86
2023/10/23 04:46:17;;;;;;;6.78;1.63;;;;;;;;;;5064037;28;20025;-84
2023/10/23 04:48:42;;;;;;;5.88;1.30;;;;;;;;;;5066029;28;20028;-83
2023/10/23 04:51:07;;;;;;;6.80;1.80;;;;;;;;;;5063140;28;20058;-83
2023/10/23 04:53:33;;;;;;;5.63;1.30;;;;;;;;;;5070053;28;20038;-84
2023/10/23 04:55:58;;;;;;;6.75;1.67;;;;;;;;;;5067804;28;20025;-86
2023/10/23 04:58:23;;;;;;;6.07;1.27;;;;;;;;;;5068417;28;20051;-85
2023/10/23 05:00:49;;;;;;;6.30;2.10;;;;;;;;;;5049418;28;20103;-85
2023/10/23 05:03:15;;;;;;;8.50;1.50;;;;;;;;;;5050971;28;20108;-85
2023/10/23 05:05:47;;;;;;;9.32;1.92;;;;;;;;;;5068111;28;20020;-86
2023/10/23 05:08:13;;;;;;;11.43;3.08;;;;;;;;;;5051391;28;20063;-86
2023/10/23 05:10:38;;;;;;;6.97;2.08;;;;;;;;;;5048893;28;20029;-85
2023/10/23 05:13:04;;;;;;;8.13;1.77;;;;;;;;;;5063375;28;20397;-85
2023/10/23 05:15:30;;;;;;;6.95;1.90;;;;;;;;;;5056535;28;20029;-85
2023/10/23 05:17:56;;;;;;;36.05;23.88;;;;;;;;;;5063499;28;20495;-85
2023/10/23 05:20:21;;;;;;;16.02;7.38;;;;;;;;;;5036118;28;20110;-85
2023/10/23 05:22:46;;;;;;;10.70;3.85;;;;;;;;;;5068875;28;20064;-85
2023/10/23 05:25:11;;;;;;;8.63;1.98;;;;;;;;;;5068949;28;20392;-85
2023/10/23 05:27:37;;;;;;;9.45;2.20;;;;;;;;;;5064986;28;20033;-86
2023/10/23 05:30:03;;;;;;;6.20;2.00;;;;;;;;;;5053121;28;20710;-85
2023/10/23 05:32:29;;;;;;;6.28;2.22;;;;;;;;;;5090033;22;20051;-80
2023/10/23 05:34:54;;;;;;;11.10;2.58;;;;;;;;;;5085515;28;20016;-80
2023/10/23 05:37:19;;;;;;;9.25;2.45;;;;;;;;;;5071363;28;20040;-81
2023/10/23 05:39:45;;;;;;;8.25;2.53;;;;;;;;;;5090019;28;20027;-80
2023/10/23 05:42:10;;;;;;;8.60;2.75;;;;;;;;;;5091698;28;20024;-80
2023/10/23 05:44:35;;;;;;;9.13;2.30;;;;;;;;;;5086537;28;20020;-81
2023/10/23 05:47:00;;;;;;;10.15;2.20;;;;;;;;;;5089310;28;20119;-80
2023/10/23 05:49:27;;;;;;;7.63;1.92;;;;;;;;;;5084766;28;20031;-80
2023/10/23 05:51:52;;;;;;;7.97;2.17;;;;;;;;;;5085152;28;20047;-80
2023/10/23 05:54:17;;;;;;;5.95;1.55;;;;;;;;;;5068849;28;20493;-81
2023/10/23 05:56:46;;;;;;;8.38;1.98;;;;;;;;;;5074022;28;20039;-80
2023/10/23 05:59:11;;;;;;;6.88;1.98;;;;;;;;;;5085105;28;20032;-80
2023/10/23 06:01:36;;;;;;;4.45;1.42;;;;;;;;;;5072653;28;20028;-81
2023/10/23 06:04:04;;;;;;;9.18;1.92;;;;;;;;;;5085112;28;20118;-80
2023/10/23 06:06:29;;;;;;;7.30;1.67;;;;;;;;;;5048776;28;20025;-81
2023/10/23 06:08:54;;;;;;;5.28;1.60;;;;;;;;;;5069139;28;20384;-81
2023/10/23 06:11:20;;;;;;;8.45;2.85;;;;;;;;;;5084869;28;20075;-81
2023/10/23 06:13:45;;;;;;;7.47;2.00;;;;;;;;;;5086393;28;20563;-81
2023/10/23 06:16:10;;;;;;;8.93;2.17;;;;;;;;;;5083362;28;20032;-80
2023/10/23 06:18:36;;;;;;;26.35;15.73;;;;;;;;;;5086704;28;20024;-81
2023/10/23 06:21:05;;;;;;;10.27;3.75;;;;;;;;;;5085331;28;20020;-81
2023/10/23 06:23:40;;;;;;;6.60;2.10;;;;;;;;;;5068366;28;20028;-81
2023/10/23 06:26:06;;;;;;;8.90;1.95;;;;;;;;;;5057707;28;20027;-82
2023/10/23 06:28:31;;;;;;;4.88;1.42;;;;;;;;;;5053413;28;20024;-80
2023/10/23 06:30:56;;;;;;;7.32;1.90;;;;;;;;;;5073455;28;20476;-81
2023/10/23 06:33:21;;;;;;;10.52;1.92;;;;;;;;;;5084663;28;20082;-80
2023/10/23 06:35:55;;;;;;;11.07;3.80;;;;;;;;;;5067949;28;20081;-81
2023/10/23 06:38:20;;;;;;;7.15;2.22;;;;;;;;;;5056301;28;20024;-81
2023/10/23 06:40:46;;;;;;;8.82;2.33;;;;;;;;;;5086421;28;20452;-81
2023/10/23 06:43:11;;;;;;;10.75;1.65;;;;;;;;;;5056405;28;20028;-81
2023/10/23 06:45:37;;;;;;;6.90;1.40;;;;;;;;;;5085260;28;20081;-81
2023/10/23 06:48:03;;;;;;;8.18;1.70;;;;;;;;;;5065384;28;20107;-81
2023/10/23 06:50:28;;;;;;;5.75;1.35;;;;;;;;;;5082647;28;20028;-81
2023/10/23 06:52:54;;;;;;;7.85;1.92;;;;;;;;;;5086636;28;20031;-80
2023/10/23 06:55:19;;;;;;;7.07;1.73;;;;;;;;;;5086216;28;20028;-81
2023/10/23 06:57:44;;;;;;;7.22;2.10;;;;;;;;;;5087491;28;20051;-81
2023/10/23 07:00:09;;;;;;;6.38;2.53;;;;;;;;;;5064434;28;20016;-81
2023/10/23 07:02:35;;;;;;;8.98;2.50;;;;;;;;;;5086159;28;20485;-81
2023/10/23 07:05:00;;;;;;;8.82;1.88;;;;;;;;;;5088865;28;20046;-81
2023/10/23 07:07:25;;;;;;;8.40;2.10;;;;;;;;;;5084829;28;20123;-81
2023/10/23 07:09:53;;;;;;;7.55;1.75;;;;;;;;;;5071710;28;20024;-81
2023/10/23 07:12:18;;;;;;;7.72;2.08;;;;;;;;;;5066684;28;20029;-81
2023/10/23 07:14:43;;;;;;;9.48;2.35;;;;;;;;;;5088672;28;20611;-81
2023/10/23 07:17:09;;;;;;;8.88;2.08;;;;;;;;;;5080445;28;20460;-82
2023/10/23 07:19:34;;;;;;;7.45;2.25;;;;;;;;;;5086057;28;20023;-81
2023/10/23 07:21:59;;;;;;;7.78;1.70;;;;;;;;;;5071339;28;20078;-81
2023/10/23 07:24:24;;;;;;;7.47;2.00;;;;;;;;;;5091487;28;20028;-81
2023/10/23 07:26:50;;;;;;;6.28;1.73;;;;;;;;;;5085853;28;20111;-80
2023/10/23 07:29:15;;;;;;;5.72;1.75;;;;;;;;;;5080446;28;20115;-81
2023/10/23 07:31:40;;;;;;;6.22;2.10;;;;;;;;;;5081064;28;20033;-81
2023/10/23 07:34:05;;;;;;;7.30;1.95;;;;;;;;;;5084442;28;20024;-81
2023/10/23 07:36:31;;;;;;;4.53;2.00;;;;;;;;;;5054838;28;20121;-80
2023/10/23 07:38:56;;;;;;;7.38;1.88;;;;;;;;;;5084184;28;20572;-81
2023/10/23 07:41:21;;;;;;;10.63;2.10;;;;;;;;;;5082621;28;20028;-81
2023/10/23 07:43:46;;;;;;;11.55;2.15;;;;;;;;;;5080922;28;20108;-81
2023/10/23 07:46:12;;;;;;;7.65;1.98;;;;;;;;;;5069624;28;20119;-80
2023/10/23 07:48:37;;;;;;;9.65;2.85;;;;;;;;;;5082206;28;20082;-81
2023/10/23 07:51:06;;;;;;;6.88;2.10;;;;;;;;;;5070942;28;20032;-80
2023/10/23 07:53:38;;;;;;;7.38;2.10;;;;;;;;;;5065720;28;20043;-81
2023/10/23 07:56:06;;;;;;;9.55;2.33;;;;;;;;;;5071571;28;20441;-80
2023/10/23 07:58:31;;;;;;;8.20;1.95;;;;;;;;;;5088105;28;20099;-81
2023/10/23 08:01:00;;;;;;;7.30;2.45;;;;;;;;;;5074491;28;20548;-80
2023/10/23 08:03:25;;;;;;;6.53;1.80;;;;;;;;;;5082025;28;20081;-81
2023/10/23 08:05:51;;;;;;;8.15;2.00;;;;;;;;;;5069140;28;20040;-81
2023/10/23 08:08:16;;;;;;;8.77;2.30;;;;;;;;;;5066282;28;20029;-80
2023/10/23 08:10:41;;;;;;;8.18;2.17;;;;;;;;;;5084484;28;20114;-82
2023/10/23 08:13:06;;;;;;;6.20;2.13;;;;;;;;;;5082224;28;20111;-81
2023/10/23 08:15:32;;;;;;;8.75;1.55;;;;;;;;;;5062006;28;20029;-81
2023/10/23 08:17:57;;;;;;;8.63;2.25;;;;;;;;;;5084083;28;20480;-81
2023/10/23 08:20:22;;;;;;;7.43;2.03;;;;;;;;;;5080417;28;20659;-80
2023/10/23 08:22:47;;;;;;;5.57;1.38;;;;;;;;;;5083822;28;20036;-80
2023/10/23 08:25:13;;;;;;;8.90;1.88;;;;;;;;;;5083805;28;20111;-80
2023/10/23 08:27:38;;;;;;;7.25;2.00;;;;;;;;;;5075246;28;20109;-81
2023/10/23 08:30:04;;;;;;;6.60;1.73;;;;;;;;;;5066385;28;20526;-81
2023/10/23 08:32:30;;;;;;;8.07;2.50;;;;;;;;;;5084280;28;20029;-81
2023/10/23 08:34:55;;;;;;;5.97;1.30;;;;;;;;;;5083096;28;20038;-81
2023/10/23 08:37:20;;;;;;;5.55;2.22;;;;;;;;;;5066440;28;20527;-81
2023/10/23 08:39:45;;;;;;;6.00;1.60;;;;;;;;;;5080304;28;20025;-81
2023/10/23 08:42:11;;;;;;;8.25;2.15;;;;;;;;;;5083083;28;20024;-81
2023/10/23 08:44:36;;;;;;;7.00;1.35;;;;;;;;;;5081191;28;20028;-81
2023/10/23 08:47:02;;;;;;;5.88;1.55;;;;;;;;;;5085743;28;20032;-80
2023/10/23 08:49:28;;;;;;;6.57;1.88;;;;;;;;;;5086521;28;20369;-81
2023/10/23 08:51:53;;;;;;;8.88;2.10;;;;;;;;;;5052551;28;20130;-81
2023/10/23 08:54:20;;;;;;;6.95;1.70;;;;;;;;;;5073905;28;20020;-81
2023/10/23 08:56:56;;;;;;;5.20;1.60;;;;;;;;;;5068995;28;20036;-82
2023/10/23 08:59:22;;;;;;;5.80;1.58;;;;;;;;;;5071287;28;20040;-81
2023/10/23 09:01:47;;;;;;;7.85;2.30;;;;;;;;;;5087173;28;20415;-81
2023/10/23 09:04:12;;;;;;;6.03;1.58;;;;;;;;;;5085126;28;20028;-82
2023/10/23 09:06:38;;;;;;;8.23;1.85;;;;;;;;;;5068662;28;20059;-81
2023/10/23 09:09:04;;;;;;;6.88;1.70;;;;;;;;;;5084059;28;20035;-81
2023/10/23 09:11:39;;;;;;;6.65;1.50;;;;;;;;;;5071202;28;20036;-81
2023/10/23 09:14:04;;;;;;;8.38;2.05;;;;;;;;;;5071425;28;20047;-81
2023/10/23 09:16:30;;;;;;;5.00;1.30;;;;;;;;;;5085837;28;20135;-81
2023/10/23 09:18:55;;;;;;;6.82;2.00;;;;;;;;;;5073484;28;20017;-82
2023/10/23 09:21:21;;;;;;;8.60;2.00;;;;;;;;;;5073369;28;20116;-81
2023/10/23 09:23:53;;;;;;;4.80;1.27;;;;;;;;;;5085885;28;20024;-81
2023/10/23 09:26:19;;;;;;;5.38;1.55;;;;;;;;;;5085563;28;20440;-81
2023/10/23 09:28:45;;;;;;;4.63;1.40;;;;;;;;;;5072550;28;20032;-81
2023/10/23 09:31:11;;;;;;;7.15;1.67;;;;;;;;;;5089085;28;20115;-81
2023/10/23 09:33:36;;;;;;;7.72;2.05;;;;;;;;;;5092577;28;20455;-81
2023/10/23 09:36:02;;;;;;;6.63;1.70;;;;;;;;;;5083776;28;20504;-82
2023/10/23 09:38:28;;;;;;;6.72;1.30;;;;;;;;;;5072808;28;20366;-81
2023/10/23 09:40:55;;;;;;;3.15;1.00;;;;;;;;;;5087061;28;20024;-81
2023/10/23 09:43:21;;;;;;;3.28;1.20;;;;;;;;;;5088126;28;20539;-81
2023/10/23 09:45:47;;;;;;;3.40;1.35;;;;;;;;;;5091103;28;20074;-80
2023/10/23 09:48:13;;;;;;;6.25;1.30;;;;;;;;;;5084035;28;20032;-82
2023/10/23 09:50:40;;;;;;;3.92;1.58;;;;;;;;;;5092786;28;20020;-81
2023/10/23 09:53:06;;;;;;;4.65;1.42;;;;;;;;;;5058374;28;20062;-81
2023/10/23 09:55:32;;;;;;;6.05;1.80;;;;;;;;;;5071642;28;20028;-81
2023/10/23 09:58:01;;;;;;;6.70;1.40;;;;;;;;;;5090042;28;20081;-82
2023/10/23 10:00:26;;;;;;;4.28;1.63;;;;;;;;;;5085143;28;20024;-82
2023/10/23 10:02:55;;;;;;;4.75;1.30;;;;;;;;;;5069909;28;20568;-80
2023/10/23 10:05:24;;;;;;;4.03;1.08;;;;;;;;;;5086768;28;20024;-80
2023/10/23 10:08:03;;;;;;;4.38;1.35;;;;;;;;;;5088275;28;20099;-79
2023/10/23 10:10:29;;;;;;;4.53;1.20;;;;;;;;;;5085065;28;20107;-80
2023/10/23 10:12:55;;;;;;;5.65;1.80;;;;;;;;;;5085776;28;20040;-80
2023/10/23 10:15:21;;;;;;;3.70;1.15;;;;;;;;;;5084508;28;20555;-79
2023/10/23 10:17:46;;;;;;;4.88;1.30;;;;;;;;;;5086541;28;20128;-80
2023/10/23 10:20:12;;;;;;;4.28;1.15;;;;;;;;;;5073919;28;20056;-80
2023/10/23 10:22:39;;;;;;;2.88;0.80;;;;;;;;;;5091503;28;20017;-79
2023/10/23 10:25:05;;;;;;;2.40;0.88;;;;;;;;;;5091017;28;20020;-79
2023/10/23 10:27:31;;;;;;;3.78;1.13;;;;;;;;;;5089575;28;20138;-80
2023/10/23 10:29:59;;;;;;;3.20;0.70;;;;;;;;;;5093297;28;20051;-80
2023/10/23 10:32:25;;;;;;;2.70;0.68;;;;;;;;;;5086362;28;20035;-80
2023/10/23 10:34:54;;;;;;;2.95;0.90;;;;;;;;;;5067583;28;20032;-81
2023/10/23 10:37:27;;;;;;;4.25;0.88;;;;;;;;;;5067531;28;20127;-80
2023/10/23 10:39:56;;;;;;;4.03;1.00;;;;;;;;;;5074710;28;20028;-80
2023/10/23 10:42:25;;;;;;;3.70;0.90;;;;;;;;;;5089269;28;20032;-81
2023/10/23 10:44:54;;;;;;;3.50;0.73;;;;;;;;;;5053937;28;20032;-80
2023/10/23 10:47:20;;;;;;;3.53;1.13;;;;;;;;;;5071765;28;20059;-80
2023/10/23 10:49:45;;;;;;;2.53;0.93;;;;;;;;;;5088161;28;20029;-80
2023/10/23 10:52:31;;;;;;;6.47;1.50;;;;;;;;;;5083084;28;20031;-80
2023/10/23 10:55:00;;;;;;;3.08;1.40;;;;;;;;;;5085771;28;20070;-80
2023/10/23 10:57:25;;;;;;;4.53;1.75;;;;;;;;;;5069553;28;20085;-80
2023/10/23 10:59:57;;;;;;;6.00;1.20;;;;;;;;;;5054390;28;20023;-80
2023/10/23 11:02:23;;;;;;;5.68;1.60;;;;;;;;;;5082657;28;20061;-81
2023/10/23 11:04:48;;;;;;;2.97;1.00;;;;;;;;;;5085820;28;20041;-81
2023/10/23 11:07:13;;;;;;;3.17;1.10;;;;;;;;;;5083983;28;20120;-81
2023/10/23 11:09:39;;;;;;;3.45;1.10;;;;;;;;;;5088521;28;20677;-81
2023/10/23 11:12:06;;;;;;;5.88;1.40;;;;;;;;;;5081759;28;20032;-81
2023/10/23 11:14:31;;;;;;;3.13;1.17;;;;;;;;;;5049951;28;20036;-81
2023/10/23 11:16:56;;;;;;;3.80;1.17;;;;;;;;;;5055794;28;20024;-81
2023/10/23 11:19:21;;;;;;;4.15;1.70;;;;;;;;;;5088661;28;20480;-81
2023/10/23 11:21:47;;;;;;;4.03;1.42;;;;;;;;;;5084195;28;20043;-81
2023/10/23 11:24:12;;;;;;;4.05;1.50;;;;;;;;;;5071400;28;20061;-81
2023/10/23 11:26:37;;;;;;;5.07;2.10;;;;;;;;;;5087081;28;20111;-82
2023/10/23 11:29:03;;;;;;;3.55;1.80;;;;;;;;;;5069110;28;20811;-82
2023/10/23 11:31:28;;;;;;;4.35;1.90;;;;;;;;;;5083732;28;20032;-82
2023/10/23 11:33:55;;;;;;;3.67;1.33;;;;;;;;;;5090091;28;20066;-82
2023/10/23 11:36:21;;;;;;;2.17;0.80;;;;;;;;;;5068295;28;20040;-82
2023/10/23 11:38:46;;;;;;;2.92;0.80;;;;;;;;;;5108602;22;20074;-85
2023/10/23 11:41:12;;;;;;;3.80;1.10;;;;;;;;;;5082818;28;20020;-84
2023/10/23 11:43:38;;;;;;;3.30;1.08;;;;;;;;;;5072367;28;20043;-85
2023/10/23 11:46:04;;;;;;;3.95;1.23;;;;;;;;;;5095751;28;20023;-85
2023/10/23 11:48:30;;;;;;;2.85;1.10;;;;;;;;;;5070076;28;20074;-84
2023/10/23 11:50:55;;;;;;;4.93;1.48;;;;;;;;;;5062867;28;20534;-85
2023/10/23 11:53:21;;;;;;;4.50;1.23;;;;;;;;;;5059833;28;20036;-85
2023/10/23 11:55:46;;;;;;;5.13;1.30;;;;;;;;;;5046265;28;20068;-85
2023/10/23 11:58:11;;;;;;;4.05;0.90;;;;;;;;;;5064969;28;20115;-85
2023/10/23 12:00:37;;;;;;;2.22;0.93;;;;;;;;;;5060617;28;20025;-85
2023/10/23 12:03:04;;;;;;;2.35;0.88;;;;;;;;;;5051289;28;20028;-85
2023/10/23 12:05:29;;;;;;;2.00;0.98;;;;;;;;;;5049748;28;20436;-85
2023/10/23 12:07:55;;;;;;;4.85;1.38;;;;;;;;;;5062033;28;20032;-85
2023/10/23 12:10:22;;;;;;;4.15;1.30;;;;;;;;;;5061594;28;20037;-84
2023/10/23 12:12:47;;;;;;;24.27;2.22;;;;;;;;;;5061346;28;20028;-84
2023/10/23 12:15:15;;;;;;;4.78;1.20;;;;;;;;;;5047411;28;20094;-85
2023/10/23 12:17:41;;;;;;;4.78;1.30;;;;;;;;;;5035277;28;20451;-85
2023/10/23 12:20:07;;;;;;;3.38;1.15;;;;;;;;;;5064018;28;20053;-84
2023/10/23 12:22:33;;;;;;;2.97;0.90;;;;;;;;;;5034029;28;20056;-85
2023/10/23 12:24:59;;;;;;;155.02;11.18;;;;;;;;;;5050502;28;20036;-85
2023/10/23 12:27:25;;;;;;;4.22;1.70;;;;;;;;;;5064813;28;20032;-85
2023/10/23 12:29:50;;;;;;;2.20;1.20;;;;;;;;;;5071570;28;20122;-85
2023/10/23 12:32:15;;;;;;;3.20;1.52;;;;;;;;;;5064757;28;20030;-85
2023/10/23 12:34:40;;;;;;;3.88;1.30;;;;;;;;;;5066762;28;20036;-85
2023/10/23 12:37:05;;;;;;;4.22;1.10;;;;;;;;;;5063208;28;20115;-85
2023/10/23 12:39:31;;;;;;;3.88;1.00;;;;;;;;;;5052659;28;20112;-85
2023/10/23 12:41:56;;;;;;;2.22;0.90;;;;;;;;;;5067989;28;20048;-85
2023/10/23 12:44:21;;;;;;;3.85;0.98;;;;;;;;;;5047658;28;20022;-85
2023/10/23 12:46:47;;;;;;;4.80;1.13;;;;;;;;;;5070234;28;20056;-85
2023/10/23 12:49:12;;;;;;;6.10;1.50;;;;;;;;;;5063870;28;20074;-85
2023/10/23 12:51:37;;;;;;;3.30;0.93;;;;;;;;;;5056107;28;20035;-85
2023/10/23 12:54:02;;;;;;;2.45;0.77;;;;;;;;;;5051740;28;20274;-85
2023/10/23 12:56:27;;;;;;;5.53;1.70;;;;;;;;;;5049550;28;20041;-85
2023/10/23 12:58:53;;;;;;;3.33;0.93;;;;;;;;;;5067029;28;20024;-85
2023/10/23 13:01:18;;;;;;;3.28;1.30;;;;;;;;;;5064069;28;20278;-85
2023/10/23 13:03:43;;;;;;;4.05;1.48;;;;;;;;;;5066764;28;20033;-86
2023/10/23 13:06:08;;;;;;;2.80;1.00;;;;;;;;;;5066739;28;20016;-85
2023/10/23 13:08:33;;;;;;;3.40;1.02;;;;;;;;;;5064654;28;20063;-85
2023/10/23 13:10:59;;;;;;;2.30;1.15;;;;;;;;;;5066034;28;20016;-85
2023/10/23 13:13:24;;;;;;;3.65;1.25;;;;;;;;;;5065921;28;20037;-85
2023/10/23 13:15:50;;;;;;;3.78;1.23;;;;;;;;;;5055120;28;20412;-85
2023/10/23 13:18:15;;;;;;;3.90;1.00;;;;;;;;;;5062097;28;20028;-85
2023/10/23 13:20:40;;;;;;;2.05;0.80;;;;;;;;;;5068200;28;20457;-85
2023/10/23 13:23:05;;;;;;;3.03;0.85;;;;;;;;;;5050547;28;20036;-86
2023/10/23 13:25:30;;;;;;;3.08;1.00;;;;;;;;;;5051525;28;20025;-85
2023/10/23 13:27:56;;;;;;;5.25;1.25;;;;;;;;;;5055860;28;20039;-85
2023/10/23 13:30:21;;;;;;;3.57;1.10;;;;;;;;;;5063284;28;20148;-85
2023/10/23 13:32:46;;;;;;;2.83;1.50;;;;;;;;;;5068944;28;20267;-85
2023/10/23 13:35:14;;;;;;;4.43;1.20;;;;;;;;;;5063876;28;20048;-85
2023/10/23 13:37:39;;;;;;;4.28;0.98;;;;;;;;;;5055365;28;20028;-85
2023/10/23 13:40:07;;;;;;;3.50;1.17;;;;;;;;;;5068382;28;20036;-85
2023/10/23 13:42:33;;;;;;;4.53;1.25;;;;;;;;;;5063367;28;20037;-85
2023/10/23 13:44:59;;;;;;;3.70;1.20;;;;;;;;;;5066552;28;20106;-85
2023/10/23 13:47:24;;;;;;;3.70;0.90;;;;;;;;;;5069356;28;20101;-85
2023/10/23 13:49:49;;;;;;;3.10;1.08;;;;;;;;;;5048765;28;20036;-85
2023/10/23 13:52:14;;;;;;;3.28;1.00;;;;;;;;;;5066476;28;20103;-85
2023/10/23 13:54:40;;;;;;;1.37;0.67;;;;;;;;;;5064397;28;20040;-86
2023/10/23 13:57:05;;;;;;;6.30;1.40;;;;;;;;;;5047385;28;20298;-85
2023/10/23 13:59:30;;;;;;;4.07;1.30;;;;;;;;;;5064891;28;20282;-85
2023/10/23 14:01:55;;;;;;;3.40;1.30;;;;;;;;;;5063809;28;20034;-84
2023/10/23 14:04:20;;;;;;;3.83;1.07;;;;;;;;;;5069401;28;20024;-82
2023/10/23 14:06:46;;;;;;;1.87;0.60;;;;;;;;;;5057264;28;20274;-82
2023/10/23 14:09:11;;;;;;;2.87;0.90;;;;;;;;;;5052421;28;20293;-82
2023/10/23 14:11:36;;;;;;;4.78;0.90;;;;;;;;;;5051943;28;21713;-82
2023/10/23 14:14:02;;;;;;;3.95;0.68;;;;;;;;;;5066898;28;20021;-82
2023/10/23 14:16:27;;;;;;;2.00;0.70;;;;;;;;;;5064859;28;20715;-82
2023/10/23 14:18:52;;;;;;;3.00;0.90;;;;;;;;;;5056744;28;20032;-82
2023/10/23 14:21:18;;;;;;;4.35;1.00;;;;;;;;;;5071653;28;20037;-82
2023/10/23 14:23:43;;;;;;;2.28;0.70;;;;;;;;;;5073076;28;20111;-82
2023/10/23 14:26:11;;;;;;;2.38;0.90;;;;;;;;;;5071787;28;20111;-82
2023/10/23 14:28:36;;;;;;;3.58;1.10;;;;;;;;;;5071589;28;20035;-82
2023/10/23 14:31:01;;;;;;;3.88;1.40;;;;;;;;;;5072858;28;20022;-82
2023/10/23 14:33:27;;;;;;;3.30;1.10;;;;;;;;;;5048478;28;20389;-82
2023/10/23 14:35:54;;;;;;;4.13;0.85;;;;;;;;;;5070832;28;20048;-82